createdAt,value
2023-01-26T00:02:00.151Z,-1.77
2023-01-26T00:06:56.632Z,-1.82
2023-01-26T00:11:53.071Z,-1.71
2023-01-26T00:16:49.660Z,-1.73
2023-01-26T00:21:46.088Z,-1.60
2023-01-26T00:26:42.550Z,-1.60
2023-01-26T00:31:39.031Z,-1.57
2023-01-26T00:36:37.611Z,-1.59
2023-01-26T00:41:52.559Z,-1.57
2023-01-26T00:46:48.991Z,-1.72
2023-01-26T00:51:45.448Z,-1.75
2023-01-26T00:56:41.855Z,-1.61
2023-01-26T01:01:38.321Z,-1.72
2023-01-26T01:06:34.809Z,-1.69
2023-01-26T01:11:31.898Z,-1.69
2023-01-26T01:16:28.644Z,-1.67
2023-01-26T01:21:25.790Z,-1.66
2023-01-26T01:26:22.279Z,-1.77
2023-01-26T01:31:18.781Z,-1.73
2023-01-26T01:36:17.009Z,-1.77
2023-01-26T01:41:15.562Z,-1.67
2023-01-26T01:46:20.595Z,-1.70
2023-01-26T01:51:31.443Z,-1.59
2023-01-26T01:56:29.484Z,-1.76
2023-01-26T02:01:26.191Z,-1.71
2023-01-26T02:06:29.260Z,-1.75
2023-01-26T02:11:32.430Z,-1.65
2023-01-26T02:16:28.823Z,-1.64
2023-01-26T02:21:25.341Z,-1.72
2023-01-26T02:26:30.957Z,-1.64
2023-01-26T02:31:28.245Z,-1.63
2023-01-26T02:36:30.357Z,-1.66
2023-01-26T02:41:45.615Z,-1.72
2023-01-26T02:46:42.111Z,-1.66
2023-01-26T02:51:38.576Z,-1.59
2023-01-26T02:56:39.845Z,-1.56
2023-01-26T03:01:36.295Z,-1.55
2023-01-26T03:06:32.765Z,-1.68
2023-01-26T03:11:41.966Z,-1.53
2023-01-26T03:16:38.822Z,-1.50
2023-01-26T03:21:54.094Z,-1.53
2023-01-26T03:27:09.067Z,-1.42
2023-01-26T03:32:05.474Z,-1.49
2023-01-26T03:37:01.966Z,-1.53
2023-01-26T03:42:17.265Z,-1.64
2023-01-26T03:47:32.290Z,-1.66
2023-01-26T03:52:49.355Z,-1.71
2023-01-26T03:57:45.881Z,-1.57
2023-01-26T04:03:00.981Z,-1.57
2023-01-26T04:08:20.636Z,-1.55
2023-01-26T04:13:37.325Z,-1.62
2023-01-26T04:18:52.292Z,-1.53
2023-01-26T04:23:48.698Z,-1.53
2023-01-26T04:28:45.131Z,-1.55
2023-01-26T04:33:41.826Z,-1.52
2023-01-26T04:38:38.205Z,-1.38
2023-01-26T04:43:34.691Z,-1.50
2023-01-26T04:48:31.569Z,-1.39
2023-01-26T04:53:28.561Z,-1.49
2023-01-26T04:58:25.337Z,-1.55
2023-01-26T05:03:22.593Z,-1.49
2023-01-26T05:08:20.497Z,-1.44
2023-01-26T05:13:16.885Z,-1.43
2023-01-26T05:18:13.512Z,-1.43
2023-01-26T05:23:09.966Z,-1.37
2023-01-26T05:28:06.484Z,-1.36
2023-01-26T05:33:08.137Z,-1.43
2023-01-26T05:38:04.764Z,-1.41
2023-01-26T05:43:01.196Z,-1.49
2023-01-26T05:47:57.678Z,-1.49
2023-01-26T05:52:54.369Z,-1.40
2023-01-26T05:57:50.757Z,-1.41
2023-01-26T06:02:48.668Z,-1.35
2023-01-26T06:07:45.167Z,-1.29
2023-01-26T06:12:42.923Z,-1.37
2023-01-26T06:17:39.667Z,-1.34
2023-01-26T06:22:36.066Z,-1.28
2023-01-26T06:27:33.761Z,-1.39
2023-01-26T06:32:30.772Z,-1.36
2023-01-26T06:37:27.211Z,-1.29
2023-01-26T06:42:23.748Z,-1.21
2023-01-26T06:47:20.221Z,-1.21
2023-01-26T06:52:27.917Z,-1.17
2023-01-26T06:57:24.329Z,-1.09
2023-01-26T07:02:21.984Z,-1.01
2023-01-26T07:07:18.555Z,-0.94
2023-01-26T07:12:14.989Z,-1.02
2023-01-26T07:17:11.432Z,-1.12
2023-01-26T07:22:08.455Z,-0.96
2023-01-26T07:27:04.921Z,-0.88
2023-01-26T07:32:01.433Z,-0.91
2023-01-26T07:36:57.940Z,-0.87
2023-01-26T07:41:54.350Z,-0.75
2023-01-26T07:46:50.766Z,-0.80
2023-01-26T07:51:47.225Z,-0.77
2023-01-26T07:56:44.783Z,-0.85
2023-01-26T08:01:41.353Z,-0.82
2023-01-26T08:06:37.900Z,-0.78
2023-01-26T08:11:34.971Z,-0.70
2023-01-26T08:16:31.473Z,-0.83
2023-01-26T08:21:28.422Z,-0.75
2023-01-26T08:26:24.848Z,-0.59
2023-01-26T08:31:21.837Z,-0.56
2023-01-26T08:36:21.835Z,-0.51
2023-01-26T08:41:19.109Z,-0.53
2023-01-26T08:46:15.544Z,-0.50
2023-01-26T08:51:12.036Z,-0.43
2023-01-26T08:56:11.918Z,-0.44
2023-01-26T09:01:12.299Z,-0.64
2023-01-26T09:06:10.844Z,-0.51
2023-01-26T09:11:07.978Z,-0.46
2023-01-26T09:16:15.186Z,-0.35
2023-01-26T09:21:12.465Z,-0.40
2023-01-26T09:26:09.066Z,-0.35
2023-01-26T09:31:08.306Z,-0.25
2023-01-26T09:36:10.305Z,-0.12
2023-01-26T09:41:15.996Z,-0.36
2023-01-26T09:46:22.703Z,-0.24
2023-01-26T09:51:23.288Z,-0.06
2023-01-26T09:56:24.445Z,0.04
2023-01-26T10:01:29.622Z,-0.03
2023-01-26T10:06:31.504Z,-0.15
2023-01-26T10:11:40.062Z,0.05
2023-01-26T10:16:36.451Z,0.02
2023-01-26T10:21:40.514Z,0.11
2023-01-26T10:26:37.720Z,0.01
2023-01-26T10:31:34.577Z,0.16
2023-01-26T10:36:32.644Z,0.26
2023-01-26T10:41:29.334Z,0.34
2023-01-26T10:46:33.297Z,0.33
2023-01-26T10:51:34.035Z,0.59
2023-01-26T10:56:30.445Z,0.75
2023-01-26T11:01:29.930Z,0.48
2023-01-26T11:06:30.379Z,0.44
2023-01-26T11:11:29.869Z,0.63
2023-01-26T11:16:27.917Z,0.54
2023-01-26T11:21:55.305Z,0.56
2023-01-26T11:27:13.320Z,0.53
2023-01-26T11:32:27.186Z,0.66
2023-01-26T11:37:53.823Z,0.81
2023-01-26T11:43:05.374Z,0.59
2023-01-26T11:48:20.489Z,0.66
2023-01-26T11:54:04.742Z,0.74
2023-01-26T11:59:09.333Z,0.95
2023-01-26T12:04:09.503Z,0.80
2023-01-26T12:09:05.870Z,0.86
2023-01-26T12:14:16.415Z,1.10
2023-01-26T12:19:43.445Z,1.02
2023-01-26T12:25:17.345Z,1.14
2023-01-26T12:30:25.477Z,1.24
2023-01-26T12:35:59.466Z,1.19
2023-01-26T12:41:04.877Z,1.27
2023-01-26T12:46:04.266Z,1.33
2023-01-26T12:51:11.315Z,1.25
2023-01-26T12:56:23.105Z,1.37
2023-01-26T13:01:23.721Z,1.25
2023-01-26T13:06:24.579Z,1.25
2023-01-26T13:11:39.275Z,1.03
2023-01-26T13:16:35.810Z,1.05
2023-01-26T13:21:38.038Z,0.95
2023-01-26T13:26:34.391Z,1.03
2023-01-26T13:31:33.528Z,1.01
2023-01-26T13:36:34.766Z,1.05
2023-01-26T13:41:31.220Z,1.20
2023-01-26T13:46:39.159Z,1.14
2023-01-26T13:51:35.846Z,1.19
2023-01-26T13:56:38.936Z,1.13
2023-01-26T14:01:50.742Z,1.25
2023-01-26T14:07:13.098Z,1.30
2023-01-26T14:12:18.605Z,1.07
2023-01-26T14:17:37.424Z,1.14
2023-01-26T14:22:33.988Z,1.09
2023-01-26T14:27:41.857Z,1.12
2023-01-26T14:32:39.139Z,1.19
2023-01-26T14:37:35.673Z,1.27
2023-01-26T14:42:32.235Z,1.29
2023-01-26T14:47:33.241Z,1.31
2023-01-26T14:52:39.445Z,1.16
2023-01-26T14:57:35.945Z,1.37
2023-01-26T15:02:44.184Z,1.29
2023-01-26T15:07:40.613Z,1.27
2023-01-26T15:12:37.505Z,1.32
2023-01-26T15:17:43.053Z,1.24
2023-01-26T15:22:39.540Z,1.39
2023-01-26T15:27:37.382Z,1.44
2023-01-26T15:32:39.515Z,1.39
2023-01-26T15:37:36.060Z,1.40
2023-01-26T15:42:33.283Z,1.40
2023-01-26T15:47:29.712Z,1.50
2023-01-26T15:52:30.387Z,1.63
2023-01-26T15:57:26.939Z,1.60
2023-01-26T16:02:23.473Z,1.73
2023-01-26T16:07:20.112Z,1.81
2023-01-26T16:12:33.276Z,1.76
2023-01-26T16:17:29.812Z,1.77
2023-01-26T16:22:26.201Z,1.86
2023-01-26T16:27:22.588Z,1.94
2023-01-26T16:32:28.063Z,1.96
2023-01-26T16:37:24.526Z,1.78
2023-01-26T16:42:21.684Z,1.94
2023-01-26T16:47:18.116Z,1.97
2023-01-26T16:52:14.585Z,2.02
2023-01-26T16:57:11.267Z,2.06
2023-01-26T17:02:35.595Z,1.94
2023-01-26T17:07:32.035Z,1.93
2023-01-26T17:12:29.229Z,1.95
2023-01-26T17:17:25.626Z,2.00
2023-01-26T17:22:22.028Z,2.05
2023-01-26T17:27:18.431Z,2.03
2023-01-26T17:32:17.197Z,2.08
2023-01-26T17:37:13.571Z,2.16
2023-01-26T17:42:11.583Z,2.19
2023-01-26T17:47:09.277Z,2.21
2023-01-26T17:52:08.013Z,2.33
2023-01-26T17:57:04.386Z,2.24
2023-01-26T18:02:00.884Z,2.37
2023-01-26T18:06:57.347Z,2.30
2023-01-26T18:11:53.739Z,2.45
2023-01-26T18:16:50.203Z,2.47
2023-01-26T18:21:46.838Z,2.44
2023-01-26T18:26:43.898Z,2.52
2023-01-26T18:31:40.853Z,2.54
2023-01-26T18:36:37.416Z,2.49
2023-01-26T18:41:35.079Z,2.43
2023-01-26T18:46:31.512Z,2.50
2023-01-26T18:51:30.295Z,2.51
2023-01-26T18:56:26.736Z,2.53
2023-01-26T19:01:23.234Z,2.53
2023-01-26T19:06:19.911Z,2.59
2023-01-26T19:11:16.432Z,2.64
2023-01-26T19:16:12.957Z,2.51
2023-01-26T19:21:10.412Z,2.58
2023-01-26T19:26:10.473Z,2.59
2023-01-26T19:31:07.848Z,2.63
2023-01-26T19:36:06.184Z,2.64
2023-01-26T19:41:02.633Z,2.62
2023-01-26T19:45:59.328Z,2.70
2023-01-26T19:51:11.007Z,2.73
2023-01-26T19:56:19.525Z,2.71
2023-01-26T20:01:16.033Z,2.68
2023-01-26T20:06:16.954Z,2.69
2023-01-26T20:11:13.873Z,2.76
2023-01-26T20:16:11.451Z,2.72
2023-01-26T20:21:08.081Z,2.78
2023-01-26T20:26:10.152Z,2.82
2023-01-26T20:31:10.127Z,2.79
2023-01-26T20:36:08.916Z,2.68
2023-01-26T20:41:07.484Z,2.82
2023-01-26T20:46:12.163Z,2.84
2023-01-26T20:51:20.134Z,2.85
2023-01-26T20:56:19.382Z,2.80
2023-01-26T21:01:17.439Z,2.76
2023-01-26T21:06:16.075Z,2.84
2023-01-26T21:11:14.528Z,2.94
2023-01-26T21:16:14.129Z,3.02
2023-01-26T21:21:13.047Z,3.10
2023-01-26T21:26:20.255Z,3.14
2023-01-26T21:31:18.677Z,3.09
2023-01-26T21:36:21.048Z,3.13
2023-01-26T21:41:42.096Z,3.10
2023-01-26T21:46:38.940Z,3.10
2023-01-26T21:51:54.081Z,3.08
2023-01-26T21:56:50.552Z,3.15
2023-01-26T22:01:49.220Z,3.25
2023-01-26T22:06:45.832Z,3.21
2023-01-26T22:11:42.935Z,3.17
2023-01-26T22:16:39.389Z,3.23
2023-01-26T22:21:36.211Z,3.21
2023-01-26T22:26:32.716Z,3.21
2023-01-26T22:31:30.500Z,3.33
2023-01-26T22:36:28.343Z,3.34
2023-01-26T22:41:26.824Z,3.17
2023-01-26T22:46:25.151Z,3.35
2023-01-26T22:51:24.694Z,3.41
2023-01-26T22:56:21.772Z,3.36
2023-01-26T23:01:19.601Z,3.38
2023-01-26T23:06:16.098Z,3.46
2023-01-26T23:11:21.099Z,3.42
2023-01-26T23:16:18.400Z,3.37
2023-01-26T23:21:15.204Z,3.39
2023-01-26T23:26:11.818Z,3.40
2023-01-26T23:31:09.151Z,3.42
2023-01-26T23:36:06.831Z,3.43
2023-01-26T23:41:08.586Z,3.47
2023-01-26T23:46:07.584Z,3.56
2023-01-26T23:51:09.292Z,3.54
2023-01-26T23:56:17.378Z,3.63
